Time;durP1;ratioP1;P1;durP2;ratioP2;P2;SDS_P1;SDS_P2;PMS_P1;PMS_P2;Temp;Humidity;BMP_temperature;BMP_pressure;BME280_temperature;BME280_humidity;BME280_pressure;Samples;Min_cycle;Max_cycle;Signal;HPM_P1;HPM_P2
2023/03/27 00:01:04;;;;;;;;;;;;;;;6.92;72.78;95590.98;108945;1251;95616;-73
2023/03/27 00:03:32;;;;;;;;;;;;;;;6.93;72.93;95590.13;108923;1250;103723;-71
2023/03/27 00:06:07;;;;;;;;;;;;;;;6.94;73.04;95591.86;108885;1251;101413;-72
2023/03/27 00:08:36;;;;;;;;;;;;;;;6.92;73.07;95588.17;108598;1254;100109;-73
2023/03/27 00:11:05;;;;;;;;;;;;;;;6.87;73.24;95583.30;108928;1251;95616;-73
2023/03/27 00:13:34;;;;;;;;;;;;;;;6.83;73.27;95577.21;108925;1251;96438;-73
2023/03/27 00:16:04;;;;;;;;;;;;;;;6.83;73.41;95572.39;108919;1251;103678;-73
2023/03/27 00:18:32;;;;;;;;;;;;;;;6.84;73.59;95572.95;108937;1251;100612;-73
2023/03/27 00:21:01;;;;;;;;;;;;;;;6.85;73.44;95576.41;108854;1251;99520;-73
2023/03/27 00:23:30;;;;;;;;;;;;;;;6.86;73.44;95573.46;108846;1251;95791;-72
2023/03/27 00:25:59;;;;;;;;;;;;;;;6.87;73.49;95572.84;108948;1251;95679;-73
2023/03/27 00:28:28;;;;;;;;;;;;;;;6.89;73.60;95577.11;108695;1251;102465;-73
2023/03/27 00:30:57;;;;;;;;;;;;;;;6.91;73.67;95577.25;108728;1251;101443;-73
2023/03/27 00:33:25;;;;;;;;;;;;;;;6.88;73.75;95576.56;108664;1251;100522;-73
2023/03/27 00:35:54;;;;;;;;;;;;;;;6.83;73.75;95576.52;108856;1251;95516;-73
2023/03/27 00:38:23;;;;;;;;;;;;;;;6.80;73.94;95570.91;108980;1251;95859;-73
2023/03/27 00:40:53;;;;;;;;;;;;;;;6.80;73.87;95566.75;108901;1251;102737;-73
2023/03/27 00:43:22;;;;;;;;;;;;;;;6.80;73.92;95566.66;108902;1251;101744;-73
2023/03/27 00:45:53;;;;;;;;;;;;;;;6.82;74.04;95569.44;108853;1251;99811;-72
2023/03/27 00:48:22;;;;;;;;;;;;;;;6.82;74.14;95563.50;108690;1251;95713;-73
2023/03/27 00:50:50;;;;;;;;;;;;;;;6.78;74.20;95552.18;108916;1251;95904;-72
2023/03/27 00:53:23;;;;;;;;;;;;;;;6.75;74.35;95544.98;108902;1251;103712;-72
2023/03/27 00:55:53;;;;;;;;;;;;;;;6.75;74.45;95541.35;108938;1251;101156;-72
2023/03/27 00:58:28;;;;;;;;;;;;;;;6.76;74.36;95539.64;108898;1251;100004;-73
2023/03/27 01:00:56;;;;;;;;;;;;;;;6.78;74.26;95539.30;108849;1251;95634;-73
2023/03/27 01:03:25;;;;;;;;;;;;;;;6.80;74.26;95536.67;108928;1251;95714;-72
2023/03/27 01:05:54;;;;;;;;;;;;;;;6.82;74.30;95531.73;108906;1251;103612;-72
2023/03/27 01:08:23;;;;;;;;;;;;;;;6.82;74.32;95528.52;108930;1251;101878;-73
2023/03/27 01:11:03;;;;;;;;;;;;;;;6.78;74.37;95526.02;108924;1251;99876;-72
2023/03/27 01:13:41;;;;;;;;;;;;;;;6.76;74.51;95521.36;108854;1251;95561;-72
2023/03/27 01:16:09;;;;;;;;;;;;;;;6.75;74.50;95514.59;108935;1251;96426;-73
2023/03/27 01:18:47;;;;;;;;;;;;;;;6.75;74.57;95509.55;108950;1251;103750;-72
2023/03/27 01:21:18;;;;;;;;;;;;;;;6.74;74.51;95507.38;108906;1251;101409;-73
2023/03/27 01:23:46;;;;;;;;;;;;;;;6.73;74.71;95504.71;108900;1251;100168;-73
2023/03/27 01:26:20;;;;;;;;;;;;;;;6.72;74.62;95498.00;108709;1251;95630;-73
2023/03/27 01:29:06;;;;;;;;;;;;;;;6.69;74.79;95490.05;108914;1251;95662;-72
2023/03/27 01:31:48;;;;;;;;;;;;;;;6.69;74.79;95483.45;108878;1251;103599;-73
2023/03/27 01:34:22;;;;;;;;;;;;;;;6.70;74.77;95489.33;108969;1250;101164;-73
2023/03/27 01:36:59;;;;;;;;;;;;;;;6.72;74.74;95486.90;108878;1251;100013;-72
2023/03/27 01:39:34;;;;;;;;;;;;;;;6.74;74.84;95478.53;108712;1251;95588;-73
2023/03/27 01:42:14;;;;;;;;;;;;;;;6.75;74.84;95475.34;108926;1251;96443;-73
2023/03/27 01:44:42;;;;;;;;;;;;;;;6.74;74.81;95473.55;108952;1251;103579;-74
2023/03/27 01:47:17;;;;;;;;;;;;;;;6.74;74.89;95471.13;108907;1251;101333;-72
2023/03/27 01:49:50;;;;;;;;;;;;;;;6.73;75.00;95472.01;108876;1251;99918;-73
2023/03/27 01:52:20;;;;;;;;;;;;;;;6.72;74.98;95473.66;108863;1251;95688;-74
2023/03/27 01:54:57;;;;;;;;;;;;;;;6.74;75.01;95472.89;108864;1251;95619;-73
2023/03/27 01:57:33;;;;;;;;;;;;;;;6.74;75.09;95471.45;108819;1251;102132;-73
2023/03/27 02:00:13;;;;;;;;;;;;;;;6.71;75.13;95472.02;108908;1250;101202;-73
2023/03/27 02:02:45;;;;;;;;;;;;;;;6.70;75.17;95472.42;108958;1250;99874;-72
2023/03/27 02:05:23;;;;;;;;;;;;;;;6.71;75.26;95468.36;108939;1251;95967;-73
2023/03/27 02:07:58;;;;;;;;;;;;;;;6.69;75.36;95466.66;108915;1251;95501;-73
2023/03/27 02:10:30;;;;;;;;;;;;;;;6.68;75.17;95462.83;108898;1251;102570;-73
2023/03/27 02:13:05;;;;;;;;;;;;;;;6.68;75.29;95454.46;108944;1250;101062;-72
2023/03/27 02:15:35;;;;;;;;;;;;;;;6.69;75.40;95451.27;108800;1251;98514;-73
2023/03/27 02:18:04;;;;;;;;;;;;;;;6.70;75.40;95450.02;108904;1251;95538;-73
2023/03/27 02:20:33;;;;;;;;;;;;;;;6.69;75.38;95447.09;108904;1251;96135;-73
2023/03/27 02:23:01;;;;;;;;;;;;;;;6.67;75.56;95442.80;108925;1251;103537;-73
2023/03/27 02:25:33;;;;;;;;;;;;;;;6.64;75.68;95438.77;108824;1251;101193;-73
2023/03/27 02:28:08;;;;;;;;;;;;;;;6.62;75.65;95437.02;108672;1251;99070;-73
2023/03/27 02:30:40;;;;;;;;;;;;;;;6.63;75.64;95437.80;108881;1251;95828;-72
2023/03/27 02:33:13;;;;;;;;;;;;;;;6.64;75.62;95436.20;108963;1251;95683;-74
2023/03/27 02:35:48;;;;;;;;;;;;;;;6.66;75.63;95432.35;108857;1251;103488;-72
2023/03/27 02:38:22;;;;;;;;;;;;;;;6.67;75.62;95434.15;108964;1250;101298;-74
2023/03/27 02:40:56;;;;;;;;;;;;;;;6.67;75.67;95434.85;108634;1251;99064;-72
2023/03/27 02:43:33;;;;;;;;;;;;;;;6.65;75.69;95433.85;108698;1254;95584;-73
2023/03/27 02:46:16;;;;;;;;;;;;;;;6.65;75.60;95437.39;108960;1251;95616;-72
2023/03/27 02:48:49;;;;;;;;;;;;;;;6.65;75.56;95438.46;108949;1251;103469;-73
2023/03/27 02:51:21;;;;;;;;;;;;;;;6.66;75.50;95439.77;108941;1253;101462;-73
2023/03/27 02:53:53;;;;;;;;;;;;;;;6.65;75.58;95441.85;108910;1251;99796;-73
2023/03/27 02:56:22;;;;;;;;;;;;;;;6.65;75.72;95444.95;108899;1251;95602;-72
2023/03/27 02:58:56;;;;;;;;;;;;;;;6.65;75.72;95447.79;108931;1251;95574;-73
2023/03/27 03:01:25;;;;;;;;;;;;;;;6.65;75.75;95448.70;108892;1251;105016;-74
2023/03/27 03:04:01;;;;;;;;;;;;;;;6.65;75.82;95447.20;108940;1251;101631;-73
2023/03/27 03:06:29;;;;;;;;;;;;;;;6.66;75.83;95447.93;108944;1251;100106;-73
2023/03/27 03:09:01;;;;;;;;;;;;;;;6.63;76.00;95446.65;108855;1251;95806;-72
2023/03/27 03:11:30;;;;;;;;;;;;;;;6.60;76.09;95442.66;108884;1251;95640;-73
2023/03/27 03:13:58;;;;;;;;;;;;;;;6.60;76.01;95443.66;108914;1250;103705;-73
2023/03/27 03:16:26;;;;;;;;;;;;;;;6.60;76.07;95448.34;108908;1251;101300;-73
2023/03/27 03:18:55;;;;;;;;;;;;;;;6.60;76.09;95452.64;108695;1251;99999;-73
2023/03/27 03:21:23;;;;;;;;;;;;;;;6.60;76.09;95455.36;108803;1255;95788;-72
2023/03/27 03:23:51;;;;;;;;;;;;;;;6.61;76.07;95456.34;108931;1251;96513;-74
2023/03/27 03:26:19;;;;;;;;;;;;;;;6.60;76.19;95456.39;108925;1251;103551;-73
2023/03/27 03:28:47;;;;;;;;;;;;;;;6.61;76.26;95455.77;108895;1251;101338;-73
2023/03/27 03:31:15;;;;;;;;;;;;;;;6.60;76.32;95457.09;108871;1251;100082;-72
2023/03/27 03:33:43;;;;;;;;;;;;;;;6.59;76.34;95452.54;108864;1251;95515;-73
2023/03/27 03:36:14;;;;;;;;;;;;;;;6.57;76.37;95450.98;108782;1254;95672;-72
2023/03/27 03:38:42;;;;;;;;;;;;;;;6.56;76.44;95453.29;108738;1251;103414;-73
2023/03/27 03:41:10;;;;;;;;;;;;;;;6.56;76.43;95454.02;108699;1251;101510;-72
2023/03/27 03:43:38;;;;;;;;;;;;;;;6.57;76.41;95450.39;108835;1251;100068;-73
2023/03/27 03:46:06;;;;;;;;;;;;;;;6.56;76.51;95448.13;108922;1251;95527;-73
2023/03/27 03:48:34;;;;;;;;;;;;;;;6.55;76.57;95447.02;108936;1251;95629;-73
2023/03/27 03:51:02;;;;;;;;;;;;;;;6.55;76.59;95446.91;108870;1251;103105;-72
2023/03/27 03:53:30;;;;;;;;;;;;;;;6.53;76.70;95441.88;108936;1251;101503;-73
2023/03/27 03:55:58;;;;;;;;;;;;;;;6.51;76.76;95443.38;108816;1251;99946;-73
2023/03/27 03:58:26;;;;;;;;;;;;;;;6.51;76.72;95446.21;108846;1251;95549;-73
2023/03/27 04:00:54;;;;;;;;;;;;;;;6.53;76.74;95443.60;108739;1257;95628;-73
2023/03/27 04:03:25;;;;;;;;;;;;;;;6.52;76.80;95439.95;108938;1251;103604;-73
2023/03/27 04:05:54;;;;;;;;;;;;;;;6.50;76.86;95431.50;108920;1251;101336;-72
2023/03/27 04:08:22;;;;;;;;;;;;;;;6.49;77.06;95428.10;108933;1251;99966;-73
2023/03/27 04:10:50;;;;;;;;;;;;;;;6.49;77.05;95429.17;108780;1254;95770;-73
2023/03/27 04:13:17;;;;;;;;;;;;;;;6.50;77.06;95428.29;108941;1255;95590;-74
2023/03/27 04:15:45;;;;;;;;;;;;;;;6.52;76.87;95427.19;108906;1251;104077;-73
2023/03/27 04:18:13;;;;;;;;;;;;;;;6.51;77.14;95424.94;108897;1254;101429;-73
2023/03/27 04:20:41;;;;;;;;;;;;;;;6.50;77.02;95426.31;108884;1251;99988;-72
2023/03/27 04:23:09;;;;;;;;;;;;;;;6.51;77.05;95426.42;108834;1251;95785;-73
2023/03/27 04:25:38;;;;;;;;;;;;;;;6.52;77.19;95424.50;108856;1251;95575;-73
2023/03/27 04:28:09;;;;;;;;;;;;;;;6.53;77.16;95424.83;108895;1251;103990;-73
2023/03/27 04:30:37;;;;;;;;;;;;;;;6.54;77.08;95424.73;108980;1251;101250;-72
2023/03/27 04:33:06;;;;;;;;;;;;;;;6.55;77.17;95425.14;108865;1251;99837;-73
2023/03/27 04:35:34;;;;;;;;;;;;;;;6.54;77.06;95422.52;108923;1251;95541;-74
2023/03/27 04:38:02;;;;;;;;;;;;;;;6.54;77.07;95424.73;108934;1255;95612;-74
2023/03/27 04:40:30;;;;;;;;;;;;;;;6.55;77.13;95421.34;108927;1251;103670;-73
2023/03/27 04:42:58;;;;;;;;;;;;;;;6.57;77.13;95420.90;108912;1251;109870;-74
2023/03/27 04:45:26;;;;;;;;;;;;;;;6.57;77.13;95417.76;108709;1256;99996;-73
2023/03/27 04:47:54;;;;;;;;;;;;;;;6.58;77.08;95410.27;108924;1251;95569;-73
2023/03/27 04:50:21;;;;;;;;;;;;;;;6.58;77.18;95411.23;108928;1251;95609;-73
2023/03/27 04:52:50;;;;;;;;;;;;;;;6.57;77.22;95410.21;108921;1255;103528;-73
2023/03/27 04:55:19;;;;;;;;;;;;;;;6.58;77.25;95411.67;108876;1251;100403;-73
2023/03/27 04:57:47;;;;;;;;;;;;;;;6.61;77.18;95409.33;108905;1251;100120;-73
2023/03/27 05:00:18;;;;;;;;;;;;;;;6.63;77.17;95409.32;108877;1251;95546;-73
2023/03/27 05:02:47;;;;;;;;;;;;;;;6.66;77.18;95407.44;108936;1251;95794;-73
2023/03/27 05:05:15;;;;;;;;;;;;;;;6.69;77.20;95407.51;108907;1251;102427;-72
2023/03/27 05:07:47;;;;;;;;;;;;;;;6.70;77.29;95402.87;108888;1251;101657;-72
2023/03/27 05:10:16;;;;;;;;;;;;;;;6.67;77.21;95400.01;108888;1251;99859;-72
2023/03/27 05:12:44;;;;;;;;;;;;;;;6.64;77.29;95401.66;108903;1254;95551;-72
2023/03/27 05:15:13;;;;;;;;;;;;;;;6.65;77.33;95408.48;108955;1251;95614;-72
2023/03/27 05:17:42;;;;;;;;;;;;;;;6.66;77.30;95412.59;108778;1251;103550;-73
2023/03/27 05:20:13;;;;;;;;;;;;;;;6.67;77.46;95407.63;108929;1251;101524;-73
2023/03/27 05:22:41;;;;;;;;;;;;;;;6.68;77.25;95410.87;108886;1251;99932;-73
2023/03/27 05:25:10;;;;;;;;;;;;;;;6.69;77.36;95412.23;108842;1251;95607;-72
2023/03/27 05:27:39;;;;;;;;;;;;;;;6.69;77.27;95414.81;108937;1251;95764;-73
2023/03/27 05:30:07;;;;;;;;;;;;;;;6.70;77.44;95419.12;108917;1251;103742;-73
2023/03/27 05:32:36;;;;;;;;;;;;;;;6.71;77.51;95421.66;108932;1252;101163;-73
2023/03/27 05:35:05;;;;;;;;;;;;;;;6.73;77.34;95422.99;108931;1251;100063;-73
2023/03/27 05:37:33;;;;;;;;;;;;;;;6.76;77.45;95428.79;108873;1251;95567;-72
2023/03/27 05:40:01;;;;;;;;;;;;;;;6.79;77.43;95432.07;108937;1251;95574;-73
2023/03/27 05:42:29;;;;;;;;;;;;;;;6.82;77.42;95436.55;108925;1251;103495;-72
2023/03/27 05:44:56;;;;;;;;;;;;;;;6.83;77.30;95438.14;108928;1251;101294;-74
2023/03/27 05:47:25;;;;;;;;;;;;;;;6.83;77.22;95440.86;108909;1251;99812;-73
2023/03/27 05:49:53;;;;;;;;;;;;;;;6.83;77.46;95443.21;108898;1251;95913;-72
2023/03/27 05:52:21;;;;;;;;;;;;;;;6.84;77.36;95447.58;108949;1251;95577;-73
2023/03/27 05:54:49;;;;;;;;;;;;;;;6.84;77.25;95446.09;108922;1251;103617;-73
2023/03/27 05:57:18;;;;;;;;;;;;;;;6.82;77.08;95447.81;108717;1251;101278;-73
2023/03/27 05:59:47;;;;;;;;;;;;;;;6.82;77.07;95455.04;108925;1251;99922;-72
2023/03/27 06:02:17;;;;;;;;;;;;;;;6.82;76.93;95454.83;108889;1251;95514;-72
2023/03/27 06:04:46;;;;;;;;;;;;;;;6.80;76.91;95452.80;108954;1251;95614;-73
2023/03/27 06:07:14;;;;;;;;;;;;;;;6.79;76.86;95452.81;108918;1250;103746;-72
2023/03/27 06:09:44;;;;;;;;;;;;;;;6.77;76.77;95451.91;108930;1256;101033;-72
2023/03/27 06:12:11;;;;;;;;;;;;;;;6.76;77.01;95453.19;108906;1251;108590;-73
2023/03/27 06:14:40;;;;;;;;;;;;;;;6.76;77.05;95451.09;108895;1251;95785;-72
2023/03/27 06:17:08;;;;;;;;;;;;;;;6.73;76.87;95453.02;108945;1251;95586;-73
2023/03/27 06:19:36;;;;;;;;;;;;;;;6.71;76.93;95456.11;108955;1251;102553;-72
2023/03/27 06:22:04;;;;;;;;;;;;;;;6.69;77.12;95456.52;108707;1251;100752;-74
2023/03/27 06:24:32;;;;;;;;;;;;;;;6.66;77.22;95458.54;108712;1251;99584;-72
2023/03/27 06:27:00;;;;;;;;;;;;;;;6.68;77.31;95457.23;108846;1251;95520;-72
2023/03/27 06:29:28;;;;;;;;;;;;;;;6.69;77.57;95455.40;108905;1251;96450;-73
2023/03/27 06:31:57;;;;;;;;;;;;;;;6.69;77.60;95453.79;108743;1251;104834;-73
2023/03/27 06:34:25;;;;;;;;;;;;;;;6.71;77.58;95453.23;108950;1251;101191;-73
2023/03/27 06:36:53;;;;;;;;;;;;;;;6.73;77.37;95454.52;108832;1251;99962;-72
2023/03/27 06:39:21;;;;;;;;;;;;;;;6.74;77.21;95456.14;108902;1251;95597;-72
2023/03/27 06:41:49;;;;;;;;;;;;;;;6.74;77.22;95459.98;108889;1251;95574;-72
2023/03/27 06:44:17;;;;;;;;;;;;;;;6.75;77.13;95463.48;108914;1251;103828;-72
2023/03/27 06:46:45;;;;;;;;;;;;;;;6.74;77.15;95467.33;108916;1251;101120;-73
2023/03/27 06:49:13;;;;;;;;;;;;;;;6.73;77.17;95469.23;108882;1251;100166;-73
2023/03/27 06:51:42;;;;;;;;;;;;;;;6.75;77.01;95470.93;108878;1251;95629;-72
2023/03/27 06:54:11;;;;;;;;;;;;;;;6.78;77.13;95470.33;108893;1251;95604;-72
2023/03/27 06:56:39;;;;;;;;;;;;;;;6.78;77.08;95471.67;108933;1251;103345;-73
2023/03/27 06:59:07;;;;;;;;;;;;;;;6.79;77.03;95474.44;108926;1251;101400;-73
2023/03/27 07:01:35;;;;;;;;;;;;;;;6.83;77.05;95480.85;108900;1251;99839;-73
2023/03/27 07:04:04;;;;;;;;;;;;;;;6.86;76.97;95479.98;108932;1251;95537;-73
2023/03/27 07:06:32;;;;;;;;;;;;;;;6.88;76.96;95482.80;108989;1251;95597;-72
2023/03/27 07:09:00;;;;;;;;;;;;;;;6.90;76.70;95484.10;108913;1251;103499;-74
2023/03/27 07:11:28;;;;;;;;;;;;;;;6.90;76.76;95481.90;108945;1251;101250;-72
2023/03/27 07:13:56;;;;;;;;;;;;;;;6.92;76.93;95483.08;108910;1251;100209;-72
2023/03/27 07:16:24;;;;;;;;;;;;;;;6.93;76.80;95484.13;108726;1251;95910;-73
2023/03/27 07:18:52;;;;;;;;;;;;;;;6.91;76.68;95483.29;108880;1251;95602;-73
2023/03/27 07:21:20;;;;;;;;;;;;;;;6.89;76.65;95483.45;108932;1251;103710;-72
2023/03/27 07:23:48;;;;;;;;;;;;;;;6.86;76.69;95482.11;108912;1251;100383;-72
2023/03/27 07:26:16;;;;;;;;;;;;;;;6.84;76.71;95481.77;108840;1251;99901;-72
2023/03/27 07:28:44;;;;;;;;;;;;;;;6.86;76.86;95482.16;108917;1251;95602;-73
2023/03/27 07:31:15;;;;;;;;;;;;;;;6.85;76.90;95479.52;108869;1251;95720;-73
2023/03/27 07:33:43;;;;;;;;;;;;;;;6.86;77.06;95482.23;108931;1251;103712;-72
2023/03/27 07:36:11;;;;;;;;;;;;;;;6.86;77.06;95484.05;108960;1251;101163;-72
2023/03/27 07:38:40;;;;;;;;;;;;;;;6.90;77.01;95484.96;108728;1251;99632;-73
2023/03/27 07:41:08;;;;;;;;;;;;;;;6.89;77.08;95488.33;108877;1251;95524;-72
2023/03/27 07:43:36;;;;;;;;;;;;;;;6.89;77.19;95485.70;108916;1251;95861;-72
2023/03/27 07:46:05;;;;;;;;;;;;;;;6.93;77.27;95484.94;108915;1251;103519;-72
2023/03/27 07:48:34;;;;;;;;;;;;;;;7.00;77.22;95486.63;108747;1251;100590;-73
2023/03/27 07:51:03;;;;;;;;;;;;;;;7.06;77.24;95484.09;108878;1251;99893;-73
2023/03/27 07:53:31;;;;;;;;;;;;;;;7.12;77.11;95483.27;108922;1251;95541;-74
2023/03/27 07:55:59;;;;;;;;;;;;;;;7.17;77.28;95488.41;108932;1251;95600;-72
2023/03/27 07:58:27;;;;;;;;;;;;;;;7.23;77.12;95491.48;108737;1250;103275;-72
2023/03/27 08:01:00;;;;;;;;;;;;;;;7.25;77.02;95493.19;108602;1251;201752;-73
2023/03/27 08:03:30;;;;;;;;;;;;;;;7.21;76.94;95492.38;108897;1251;98475;-74
2023/03/27 08:05:59;;;;;;;;;;;;;;;7.21;77.21;95494.08;108930;1251;95554;-72
2023/03/27 08:08:27;;;;;;;;;;;;;;;7.25;77.34;95499.64;108933;1251;95608;-72
2023/03/27 08:10:56;;;;;;;;;;;;;;;7.32;77.16;95500.46;108955;1251;102492;-74
2023/03/27 08:13:24;;;;;;;;;;;;;;;7.37;77.03;95497.29;108941;1251;101063;-74
2023/03/27 08:16:01;;;;;;;;;;;;;;;7.41;77.04;95496.95;108889;1251;100030;-73
2023/03/27 08:18:29;;;;;;;;;;;;;;;7.43;76.93;95499.48;108884;1251;95511;-72
2023/03/27 08:20:58;;;;;;;;;;;;;;;7.46;76.90;95498.73;108925;1251;95624;-74
2023/03/27 08:23:26;;;;;;;;;;;;;;;7.48;76.83;95501.03;108700;1251;103612;-73
2023/03/27 08:25:59;;;;;;;;;;;;;;;7.52;76.89;95501.03;108890;1251;101304;-73
2023/03/27 08:28:31;;;;;;;;;;;;;;;7.55;76.80;95504.11;108857;1251;99919;-72
2023/03/27 08:31:00;;;;;;;;;;;;;;;7.54;76.59;95502.42;108868;1251;95542;-72
2023/03/27 08:33:28;;;;;;;;;;;;;;;7.56;76.67;95503.39;108935;1251;95632;-74
2023/03/27 08:35:57;;;;;;;;;;;;;;;7.59;76.50;95504.91;108947;1251;102041;-72
2023/03/27 08:38:27;;;;;;;;;;;;;;;7.58;76.39;95507.67;108862;1251;101124;-73
2023/03/27 08:40:58;;;;;;;;;;;;;;;7.60;76.47;95507.59;108875;1251;99895;-74
2023/03/27 08:43:28;;;;;;;;;;;;;;;7.63;76.47;95506.63;108893;1251;95652;-73
2023/03/27 08:45:59;;;;;;;;;;;;;;;7.67;76.35;95505.69;108899;1251;95622;-74
2023/03/27 08:48:32;;;;;;;;;;;;;;;7.66;76.24;95509.91;108944;1251;103273;-72
2023/03/27 08:51:04;;;;;;;;;;;;;;;7.67;76.21;95506.85;108674;1253;100406;-72
2023/03/27 08:53:49;;;;;;;;;;;;;;;7.64;76.51;95503.64;108786;1252;99943;-72
2023/03/27 08:56:18;;;;;;;;;;;;;;;7.56;76.58;95502.80;108838;1252;95553;-73
2023/03/27 08:58:46;;;;;;;;;;;;;;;7.54;76.50;95501.04;108857;1253;95880;-73
2023/03/27 09:01:17;;;;;;;;;;;;;;;7.53;76.40;95504.52;108854;1253;103628;-73
2023/03/27 09:04:06;;;;;;;;;;;;;;;7.50;76.20;95504.39;108882;1253;100478;-74
2023/03/27 09:06:38;;;;;;;;;;;;;;;7.41;75.90;95505.70;108831;1253;99439;-72
2023/03/27 09:09:11;;;;;;;;;;;;;;;7.35;76.06;95505.44;108676;1254;96554;-72
2023/03/27 09:11:39;;;;;;;;;;;;;;;7.33;76.26;95502.10;108873;1252;95586;-73
2023/03/27 09:14:15;;;;;;;;;;;;;;;7.32;76.48;95499.56;108820;1253;102283;-73
2023/03/27 09:16:48;;;;;;;;;;;;;;;7.28;76.53;95500.98;108847;1253;99151;-72
2023/03/27 09:19:22;;;;;;;;;;;;;;;7.28;76.66;95500.12;108713;1253;99735;-74
2023/03/27 09:21:53;;;;;;;;;;;;;;;7.28;76.36;95497.86;108840;1253;95611;-72
2023/03/27 09:24:24;;;;;;;;;;;;;;;7.31;76.45;95500.61;108840;1253;95625;-72
2023/03/27 09:26:54;;;;;;;;;;;;;;;7.31;76.41;95501.10;108498;1253;103440;-72
2023/03/27 09:29:25;;;;;;;;;;;;;;;7.26;76.13;95502.44;108865;1253;101240;-74
2023/03/27 09:31:56;;;;;;;;;;;;;;;7.13;76.27;95505.39;108594;1253;99199;-72
2023/03/27 09:34:29;;;;;;;;;;;;;;;7.07;76.39;95506.11;108427;1253;95704;-72
2023/03/27 09:36:58;;;;;;;;;;;;;;;6.99;76.55;95507.61;108853;1253;95595;-72
2023/03/27 09:39:31;;;;;;;;;;;;;;;6.98;76.53;95515.86;108868;1253;103448;-72
2023/03/27 09:42:04;;;;;;;;;;;;;;;6.99;76.57;95517.42;108912;1253;101354;-72
2023/03/27 09:44:35;;;;;;;;;;;;;;;7.02;76.86;95517.59;108830;1253;100146;-73
2023/03/27 09:47:11;;;;;;;;;;;;;;;7.06;76.89;95517.64;108890;1253;95526;-72
2023/03/27 09:49:43;;;;;;;;;;;;;;;7.13;76.89;95521.97;108898;1253;96150;-72
2023/03/27 09:52:32;;;;;;;;;;;;;;;7.18;77.05;95518.98;108968;1251;103446;-72
2023/03/27 09:55:01;;;;;;;;;;;;;;;7.22;76.90;95519.07;108947;1251;101199;-72
2023/03/27 09:57:36;;;;;;;;;;;;;;;7.26;76.97;95516.89;108879;1251;99969;-72
2023/03/27 10:00:13;;;;;;;;;;;;;;;7.30;77.31;95520.11;108922;1251;95893;-72
2023/03/27 10:02:41;;;;;;;;;;;;;;;7.29;77.15;95519.52;108967;1251;95568;-73
2023/03/27 10:05:17;;;;;;;;;;;;;;;7.28;77.13;95524.27;108977;1251;104021;-73
2023/03/27 10:07:45;;;;;;;;;;;;;;;7.29;77.18;95526.73;108924;1251;101643;-72
2023/03/27 10:10:16;;;;;;;;;;;;;;;7.33;77.05;95524.65;108907;1251;99920;-72
2023/03/27 10:12:46;;;;;;;;;;;;;;;7.33;76.76;95527.23;108954;1251;95549;-73
2023/03/27 10:15:23;;;;;;;;;;;;;;;7.34;76.61;95526.40;108747;1251;96722;-73
2023/03/27 10:17:51;;;;;;;;;;;;;;;7.26;76.12;95526.75;108945;1251;103276;-73
2023/03/27 10:20:21;;;;;;;;;;;;;;;7.17;75.75;95528.70;108935;1250;101276;-73
2023/03/27 10:22:54;;;;;;;;;;;;;;;7.08;75.84;95528.95;108842;1251;99855;-72
2023/03/27 10:25:38;;;;;;;;;;;;;;;7.06;76.22;95533.52;108942;1251;95649;-73
2023/03/27 10:28:09;;;;;;;;;;;;;;;7.00;76.24;95535.42;108943;1251;95556;-74
2023/03/27 10:30:39;;;;;;;;;;;;;;;6.97;76.27;95537.88;108737;1250;103813;-73
2023/03/27 10:33:07;;;;;;;;;;;;;;;6.90;76.58;95546.73;108930;1253;109840;-73
2023/03/27 10:35:42;;;;;;;;;;;;;;;6.82;76.80;95541.30;108910;1251;98904;-73
2023/03/27 10:38:14;;;;;;;;;;;;;;;6.76;76.97;95544.42;108885;1251;95653;-72
2023/03/27 10:40:44;;;;;;;;;;;;;;;6.71;76.46;95552.88;108954;1251;95841;-72
2023/03/27 10:43:34;;;;;;;;;;;;;;;6.56;76.75;95554.98;108721;1250;102643;-73
2023/03/27 10:46:04;;;;;;;;;;;;;;;6.44;77.04;95558.55;108982;1251;100489;-72
2023/03/27 10:48:32;;;;;;;;;;;;;;;6.41;76.95;95561.46;108940;1251;99933;-73
2023/03/27 10:51:04;;;;;;;;;;;;;;;6.32;76.45;95560.93;108937;1251;95593;-72
2023/03/27 10:53:45;;;;;;;;;;;;;;;6.23;76.23;95578.17;108921;1251;95799;-72
2023/03/27 10:56:36;;;;;;;;;;;;;;;6.15;76.39;95589.38;108905;1250;103388;-72
2023/03/27 10:59:12;;;;;;;;;;;;;;;6.07;76.40;95603.25;108778;1251;101987;-72
2023/03/27 11:01:42;;;;;;;;;;;;;;;5.92;76.26;95609.46;108736;1251;99873;-73
2023/03/27 11:04:29;;;;;;;;;;;;;;;5.75;76.08;95610.59;108540;1255;95935;-72
2023/03/27 11:07:00;;;;;;;;;;;;;;;5.52;76.05;95612.27;108599;1251;96720;-72
2023/03/27 11:09:39;;;;;;;;;;;;;;;5.42;76.26;95630.86;108380;1250;103030;-72
2023/03/27 11:12:13;;;;;;;;;;;;;;;5.34;76.55;95642.23;108665;1251;101297;-73
2023/03/27 11:14:44;;;;;;;;;;;;;;;5.28;76.52;95643.80;108655;1251;99083;-73
2023/03/27 11:17:16;;;;;;;;;;;;;;;5.18;76.35;95648.23;108753;1251;95797;-72
2023/03/27 11:19:53;;;;;;;;;;;;;;;5.10;76.51;95655.95;108818;1251;95835;-72
2023/03/27 11:22:30;;;;;;;;;;;;;;;5.00;76.54;95657.31;108863;1251;103196;-73
2023/03/27 11:25:21;;;;;;;;;;;;;;;4.94;76.84;95657.51;108836;1253;101429;-73
2023/03/27 11:28:03;;;;;;;;;;;;;;;4.92;77.13;95661.42;108845;1251;100146;-74
2023/03/27 11:30:39;;;;;;;;;;;;;;;4.87;77.24;95663.85;108627;1253;95652;-74
2023/03/27 11:33:23;;;;;;;;;;;;;;;4.75;77.72;95666.94;108682;1253;96651;-74
2023/03/27 11:36:14;;;;;;;;;;;;;;;4.67;77.92;95675.47;108881;1251;103258;-72
2023/03/27 11:38:46;;;;;;;;;;;;;;;4.64;77.95;95678.57;108339;1258;101259;-73
2023/03/27 11:41:15;;;;;;;;;;;;;;;4.67;78.05;95686.00;108347;1257;100070;-73
2023/03/27 11:43:43;;;;;;;;;;;;;;;4.68;78.14;95691.70;108353;1256;95912;-75
2023/03/27 11:46:17;;;;;;;;;;;;;;;4.63;77.99;95700.98;108163;1257;95807;-75
2023/03/27 11:48:48;;;;;;;;;;;;;;;4.52;78.08;95706.64;108359;1257;103498;-75
2023/03/27 11:51:16;;;;;;;;;;;;;;;4.43;78.37;95710.15;108366;1258;100289;-74
2023/03/27 11:53:47;;;;;;;;;;;;;;;4.38;78.51;95712.39;108303;1258;100057;-75
2023/03/27 11:56:22;;;;;;;;;;;;;;;4.36;78.74;95714.41;108282;1258;95599;-74
2023/03/27 11:59:05;;;;;;;;;;;;;;;4.35;78.72;95728.56;108293;1257;95586;-74
2023/03/27 12:01:33;;;;;;;;;;;;;;;4.30;78.79;95735.79;108301;1258;103525;-74
2023/03/27 12:04:09;;;;;;;;;;;;;;;4.25;78.77;95746.11;108311;1258;101331;-73
2023/03/27 12:06:39;;;;;;;;;;;;;;;4.14;78.53;95759.34;108333;1258;99135;-72
2023/03/27 12:09:26;;;;;;;;;;;;;;;4.03;78.61;95776.52;108292;1259;95611;-72
2023/03/27 12:12:23;;;;;;;;;;;;;;;3.90;78.79;95789.52;108343;1258;95720;-72
2023/03/27 12:17:35;;;;;;;9.00;7.50;;;;;;;3.81;78.75;95808.88;102195;1293;635816;-73
2023/03/27 12:20:25;;;;;;;13.00;10.80;;;;;;;3.79;78.64;95819.08;104170;1280;96835;-71
2023/03/27 12:23:25;;;;;;;14.00;10.00;;;;;;;3.79;78.52;95824.29;104673;1274;96789;-73
2023/03/27 12:26:17;;;;;;;18.40;12.20;;;;;;;3.68;78.09;95833.54;104677;1282;99715;-72
2023/03/27 12:28:58;;;;;;;17.50;12.50;;;;;;;3.51;78.14;95845.53;104510;1274;101890;-70
2023/03/27 12:33:21;;;;;;;14.70;11.80;;;;;;;3.39;78.13;95860.80;102156;1292;635986;-73
2023/03/27 12:35:52;;;;;;;16.90;13.90;;;;;;;3.36;78.14;95873.20;104481;1278;95861;-72
2023/03/27 12:38:29;;;;;;;17.10;12.60;;;;;;;3.33;77.97;95884.42;104315;1273;95936;-72
2023/03/27 12:41:11;;;;;;;16.90;13.40;;;;;;;3.12;77.79;95888.65;104247;1274;100081;-72
2023/03/27 12:43:44;;;;;;;;;;;;;;;2.95;77.85;95895.25;104520;1269;101707;-72
2023/03/27 12:46:25;;;;;;;13.70;10.70;;;;;;;2.74;77.83;95911.95;104343;1264;336433;-73
2023/03/27 12:48:58;;;;;;;20.60;13.30;;;;;;;2.61;77.98;95925.55;104434;1266;95858;-72
2023/03/27 12:52:03;;;;;;;20.80;14.60;;;;;;;2.50;78.13;95939.63;104525;1265;95848;-72
2023/03/27 12:54:37;;;;;;;28.00;18.30;;;;;;;2.38;78.40;95950.77;104655;1269;98642;-72
2023/03/27 12:57:14;;;;;;;14.20;11.30;;;;;;;2.36;78.41;95957.61;104578;1269;102165;-72
2023/03/27 12:59:48;;;;;;;13.40;10.60;;;;;;;2.30;78.17;95964.91;104576;1266;100331;-72
2023/03/27 13:02:42;;;;;;;11.90;9.60;;;;;;;2.27;78.09;95971.48;104581;1264;96812;-72